Macau International, Macao

7:42 PM CST on April 19, 2015 (GMT +0800)
Macau International | | Change Station
CLOSE
Current Station
Airport
Location: Macau International,
Elevation: 374 ft
Nearby Weather Stations

Elev 374 ft 22.16 °N, 113.57 °E | Updated 12 minutes ago

Scattered Clouds
Scattered Clouds
77 °F
Feels Like 77 °F
N
17
Wind Variable Wind from South

Today
High -- | Low -- °F
--% Chance of Precip.
Yesterday
High -- | Low -- °F
Precip. -- in
6:03 AM 6:47 PM
New Moon, 1% visible
Pressure 29.71 in
Visibility 6.2 miles
Clouds Few 800 ft
Scattered Clouds 2000 ft
Dew Point 75 °F
Humidity 94%
Rainfall 0.00 in
Snow Depth Not available.
UV 0 out of 12
Pollen Not available.
Air Quality Not available.
Flu Activity Not available.
METAR VMMC 191130Z 18015KT 9999 FEW008 SCT020 25/24 Q1006 NOSIG

More Conditions Fewer Conditions

Pressure 29.71 in
Visibility 6.2 miles
Clouds Few 800 ft
Scattered Clouds 2000 ft
Dew Point 75 °F
Humidity 94%
Rainfall 0.00 in
Snow Depth Not available.
UV 0 out of 12
Pollen Not available.
Air Quality Not available.
Flu Activity Not available.
METAR VMMC 191130Z 18015KT 9999 FEW008 SCT020 25/24 Q1006 NOSIG

More Conditions Fewer Conditions

10-Day Weather Forecast

Almanac

Astronomy

Apr. 19, 2015 Rise Set
Actual Time
Civil Twilight
Nautical Twilight
Astronomical Twilight
Moon
Length of Visible Light
Length of Day
Tomorrow will be .
, % of the Moon is Illuminated

Today's Extremes

Country Highs Country Lows

Community

WunderPhotos

Upload Photos

1,814,760 photos uploaded!

WunderBlogs® & News

Nearby

Air Quality

  Air Quality AQ Index Pollutant
Not available.

Snow Depth

Station Depth Elevation

Earthquake Activity

City Distance Mag. Time & Date
Minimum magnitude displayed is 2.5.

Coastal Water Temperatures

Place Temperature

Stations

Nearby Weather Stations

Station Location Temp. Windchill Dew Point Humidity Wind Precip. Elev Updated Type